Time;durP1;ratioP1;P1;durP2;ratioP2;P2;SDS_P1;SDS_P2;PMS_P1;PMS_P2;Temp;Humidity;BMP_temperature;BMP_pressure;BME280_temperature;BME280_humidity;BME280_pressure;Samples;Min_cycle;Max_cycle;Signal;HPM_P1;HPM_P2
2021/10/30 00:01:31;;;;;;;19.58;13.73;;;;;;;;;;5068805;28;20061;-74
2021/10/30 00:03:59;;;;;;;19.10;12.45;;;;;;;;;;5077967;28;20496;-72
2021/10/30 00:06:26;;;;;;;18.90;13.65;;;;;;;;;;5061801;28;20024;-74
2021/10/30 00:08:52;;;;;;;22.85;12.55;;;;;;;;;;5066818;28;20037;-72
2021/10/30 00:11:18;;;;;;;21.23;13.32;;;;;;;;;;5072073;28;20477;-74
2021/10/30 00:13:44;;;;;;;34.17;13.30;;;;;;;;;;5070647;28;20056;-74
2021/10/30 00:16:10;;;;;;;20.17;12.68;;;;;;;;;;5065394;28;20081;-74
2021/10/30 00:18:36;;;;;;;19.67;12.90;;;;;;;;;;5071706;28;20052;-74
2021/10/30 00:21:28;;;;;;;19.63;12.40;;;;;;;;;;5073966;28;20036;-75
2021/10/30 00:23:55;;;;;;;18.75;12.27;;;;;;;;;;5038270;28;20061;-74
2021/10/30 00:26:33;;;;;;;19.17;13.70;;;;;;;;;;5047120;28;20048;-74
2021/10/30 00:28:59;;;;;;;19.85;13.93;;;;;;;;;;5030080;28;20040;-75
2021/10/30 00:31:25;;;;;;;18.70;13.20;;;;;;;;;;5036708;28;20041;-75
2021/10/30 00:34:20;;;;;;;21.92;12.77;;;;;;;;;;5052698;28;20055;-74
2021/10/30 00:36:46;;;;;;;19.65;13.30;;;;;;;;;;5026208;28;20053;-74
2021/10/30 00:39:13;;;;;;;22.20;14.20;;;;;;;;;;5045483;28;20506;-75
2021/10/30 00:41:39;;;;;;;20.90;14.23;;;;;;;;;;5039417;28;20080;-75
2021/10/30 00:44:11;;;;;;;22.40;13.88;;;;;;;;;;5053193;28;20029;-74
2021/10/30 00:46:40;;;;;;;18.55;13.40;;;;;;;;;;5052887;28;20116;-74
2021/10/30 00:52:16;;;;;;;27.48;13.27;;;;;;;;;;4990091;28;20056;-74
2021/10/30 00:54:45;;;;;;;17.48;13.25;;;;;;;;;;4993642;28;20125;-75
2021/10/30 00:57:11;;;;;;;20.05;14.05;;;;;;;;;;5005068;28;20039;-75
2021/10/30 00:59:38;;;;;;;20.42;12.80;;;;;;;;;;4994084;28;20026;-75
2021/10/30 01:02:04;;;;;;;20.10;12.93;;;;;;;;;;4998442;28;20042;-75
2021/10/30 01:04:30;;;;;;;20.85;12.85;;;;;;;;;;4999182;28;20042;-75
2021/10/30 01:06:58;;;;;;;17.92;12.73;;;;;;;;;;4999762;28;20033;-74
2021/10/30 01:09:25;;;;;;;19.55;12.63;;;;;;;;;;4989854;28;20030;-75
2021/10/30 01:11:52;;;;;;;23.13;13.68;;;;;;;;;;4992760;28;20026;-73
2021/10/30 01:14:18;;;;;;;20.60;12.88;;;;;;;;;;4989546;28;20034;-74
2021/10/30 01:16:48;;;;;;;22.20;12.77;;;;;;;;;;4980421;28;20047;-74
2021/10/30 01:19:15;;;;;;;20.25;13.20;;;;;;;;;;4992700;28;20086;-75
2021/10/30 01:21:41;;;;;;;18.77;12.75;;;;;;;;;;4993841;28;20106;-74
2021/10/30 01:24:07;;;;;;;17.90;13.40;;;;;;;;;;4992399;28;20026;-74
2021/10/30 01:26:36;;;;;;;21.55;13.65;;;;;;;;;;4989712;28;20477;-74
2021/10/30 01:29:02;;;;;;;19.42;12.77;;;;;;;;;;5018907;28;20063;-74
2021/10/30 01:31:30;;;;;;;19.60;12.63;;;;;;;;;;5071251;28;20103;-74
2021/10/30 01:33:57;;;;;;;19.23;13.38;;;;;;;;;;5074890;28;20037;-74
2021/10/30 01:36:23;;;;;;;20.77;14.00;;;;;;;;;;5072939;28;20024;-74
2021/10/30 01:38:50;;;;;;;23.98;13.68;;;;;;;;;;5064291;28;20025;-75
2021/10/30 01:41:16;;;;;;;20.33;13.25;;;;;;;;;;5065915;28;20025;-73
2021/10/30 01:43:44;;;;;;;17.63;13.05;;;;;;;;;;5074287;28;20021;-74
2021/10/30 01:46:10;;;;;;;18.30;13.13;;;;;;;;;;5073087;28;20070;-75
2021/10/30 01:48:37;;;;;;;21.00;13.70;;;;;;;;;;5054019;28;20478;-74
2021/10/30 01:51:05;;;;;;;21.20;12.85;;;;;;;;;;5069483;28;20093;-74
2021/10/30 01:53:33;;;;;;;23.40;14.07;;;;;;;;;;5072618;28;20027;-75
2021/10/30 01:55:59;;;;;;;20.17;13.48;;;;;;;;;;5072769;28;20024;-75
2021/10/30 01:58:25;;;;;;;21.10;13.52;;;;;;;;;;5074340;28;20563;-74
2021/10/30 02:00:52;;;;;;;20.23;13.55;;;;;;;;;;5067503;28;20029;-73
2021/10/30 02:03:19;;;;;;;21.20;13.93;;;;;;;;;;5068567;28;20082;-74
2021/10/30 02:05:45;;;;;;;18.77;12.68;;;;;;;;;;5071713;28;20535;-74
2021/10/30 02:08:11;;;;;;;23.08;13.75;;;;;;;;;;5070428;28;20074;-74
2021/10/30 02:10:40;;;;;;;21.58;13.55;;;;;;;;;;5073869;28;20099;-75
2021/10/30 02:13:06;;;;;;;19.52;13.60;;;;;;;;;;5064900;28;20039;-73
2021/10/30 02:15:32;;;;;;;20.90;13.80;;;;;;;;;;5068782;28;20029;-74
2021/10/30 02:17:58;;;;;;;20.73;14.43;;;;;;;;;;5072182;28;20024;-74
2021/10/30 02:20:24;;;;;;;22.10;14.63;;;;;;;;;;5068401;28;20071;-74
2021/10/30 02:22:59;;;;;;;24.90;14.05;;;;;;;;;;5072347;28;20410;-75
2021/10/30 02:25:26;;;;;;;22.45;14.00;;;;;;;;;;5051816;28;20025;-74
2021/10/30 02:27:52;;;;;;;21.23;14.07;;;;;;;;;;5072728;28;20074;-75
2021/10/30 02:30:18;;;;;;;23.98;15.48;;;;;;;;;;5077487;28;20029;-76
2021/10/30 02:32:54;;;;;;;20.90;13.98;;;;;;;;;;5065772;28;20049;-73
2021/10/30 02:35:21;;;;;;;19.38;13.65;;;;;;;;;;5061932;28;20411;-74
2021/10/30 02:37:47;;;;;;;20.80;14.43;;;;;;;;;;5073519;28;20058;-73
2021/10/30 02:40:13;;;;;;;22.75;15.07;;;;;;;;;;5073442;28;20017;-74
2021/10/30 02:42:39;;;;;;;21.35;14.65;;;;;;;;;;5063619;28;20036;-74
2021/10/30 02:45:06;;;;;;;22.48;14.75;;;;;;;;;;5062284;28;20028;-74
2021/10/30 02:47:32;;;;;;;20.17;14.35;;;;;;;;;;5073323;28;20035;-73
2021/10/30 02:49:59;;;;;;;23.23;14.43;;;;;;;;;;5065667;28;20370;-73
2021/10/30 02:52:25;;;;;;;22.83;14.90;;;;;;;;;;5073333;28;20478;-71
2021/10/30 02:54:52;;;;;;;22.65;14.02;;;;;;;;;;5064873;28;20359;-74
2021/10/30 02:57:20;;;;;;;22.35;14.52;;;;;;;;;;5060770;28;20028;-74
2021/10/30 02:59:46;;;;;;;19.33;14.55;;;;;;;;;;5065650;28;20020;-74
2021/10/30 03:02:12;;;;;;;20.27;13.65;;;;;;;;;;5069638;28;20048;-74
2021/10/30 03:04:38;;;;;;;22.77;13.95;;;;;;;;;;5073220;28;20094;-74
2021/10/30 03:07:04;;;;;;;19.83;13.73;;;;;;;;;;5071199;28;20056;-74
2021/10/30 03:09:30;;;;;;;19.55;14.05;;;;;;;;;;5073350;28;20016;-74
2021/10/30 03:11:57;;;;;;;18.15;13.52;;;;;;;;;;5070666;28;20517;-73
2021/10/30 03:14:23;;;;;;;20.83;14.20;;;;;;;;;;5064603;28;20024;-73
2021/10/30 03:16:49;;;;;;;20.38;13.38;;;;;;;;;;5070112;28;20036;-74
2021/10/30 03:19:15;;;;;;;22.98;13.85;;;;;;;;;;5054469;28;20029;-74
2021/10/30 03:21:41;;;;;;;23.63;14.52;;;;;;;;;;5069484;28;20094;-74
2021/10/30 03:24:07;;;;;;;20.67;13.68;;;;;;;;;;5070243;28;20020;-73
2021/10/30 03:26:34;;;;;;;19.58;13.45;;;;;;;;;;5072130;28;20025;-75
2021/10/30 03:29:00;;;;;;;21.38;14.43;;;;;;;;;;5068404;28;20025;-74
2021/10/30 03:31:26;;;;;;;22.70;14.25;;;;;;;;;;5070561;28;20385;-74
2021/10/30 03:33:52;;;;;;;19.02;13.27;;;;;;;;;;5067280;28;20044;-75
2021/10/30 03:36:18;;;;;;;23.35;14.35;;;;;;;;;;5072863;28;20452;-74
2021/10/30 03:38:44;;;;;;;20.45;13.63;;;;;;;;;;5071357;28;20107;-72
2021/10/30 03:41:10;;;;;;;20.30;14.40;;;;;;;;;;5069394;28;20036;-73
2021/10/30 03:43:36;;;;;;;21.40;15.07;;;;;;;;;;5070024;28;20047;-74
2021/10/30 03:49:24;;;;;;;24.67;16.35;;;;;;;;;;4951487;28;20079;-74
2021/10/30 03:51:51;;;;;;;24.02;16.27;;;;;;;;;;4953072;28;20135;-74
2021/10/30 03:54:26;;;;;;;22.58;16.35;;;;;;;;;;4954680;28;20613;-75
2021/10/30 03:56:52;;;;;;;22.58;16.15;;;;;;;;;;4952312;28;20039;-74
2021/10/30 03:59:19;;;;;;;22.90;17.45;;;;;;;;;;4952292;28;20031;-74
2021/10/30 04:01:45;;;;;;;28.67;17.90;;;;;;;;;;4951719;28;20138;-74
2021/10/30 04:04:11;;;;;;;22.85;17.38;;;;;;;;;;4952817;28;20497;-75
2021/10/30 04:06:38;;;;;;;26.95;18.63;;;;;;;;;;4956556;28;20047;-74
2021/10/30 04:09:05;;;;;;;26.63;17.63;;;;;;;;;;4954165;28;20027;-75
2021/10/30 04:11:31;;;;;;;27.92;18.38;;;;;;;;;;4950202;28;20424;-75
2021/10/30 04:13:57;;;;;;;23.90;18.88;;;;;;;;;;4954963;28;20047;-73
2021/10/30 04:19:18;;;;;;;32.30;18.63;;;;;;;;;;4965026;28;20048;-75
2021/10/30 04:21:44;;;;;;;28.73;18.67;;;;;;;;;;5064599;28;20037;-75
2021/10/30 04:24:11;;;;;;;28.42;19.23;;;;;;;;;;5071099;28;20107;-74
2021/10/30 04:26:37;;;;;;;29.42;18.80;;;;;;;;;;5072290;28;20033;-75
2021/10/30 04:29:04;;;;;;;29.85;18.98;;;;;;;;;;5071885;28;20035;-73
2021/10/30 04:31:33;;;;;;;29.52;18.08;;;;;;;;;;5070747;28;20035;-74
2021/10/30 04:34:04;;;;;;;24.35;17.70;;;;;;;;;;5066316;28;20041;-75
2021/10/30 04:36:31;;;;;;;25.02;17.20;;;;;;;;;;5068506;28;20486;-75
2021/10/30 04:38:58;;;;;;;26.30;16.80;;;;;;;;;;5072733;28;20074;-75
2021/10/30 04:41:25;;;;;;;23.70;15.48;;;;;;;;;;5066402;28;20382;-74
2021/10/30 04:43:51;;;;;;;23.63;15.60;;;;;;;;;;5071071;28;20023;-75
2021/10/30 04:46:19;;;;;;;24.15;15.20;;;;;;;;;;5072080;28;20097;-75
2021/10/30 04:48:54;;;;;;;19.55;13.90;;;;;;;;;;5069963;28;20032;-75
2021/10/30 04:51:20;;;;;;;23.83;14.52;;;;;;;;;;5068384;28;20033;-73
2021/10/30 04:53:47;;;;;;;24.40;15.02;;;;;;;;;;5052383;28;20454;-74
2021/10/30 04:56:13;;;;;;;20.33;14.05;;;;;;;;;;5064537;28;20055;-75
2021/10/30 04:59:05;;;;;;;24.23;13.80;;;;;;;;;;5074575;28;20135;-75
2021/10/30 05:01:31;;;;;;;20.67;14.43;;;;;;;;;;4959773;28;20079;-75
2021/10/30 05:03:57;;;;;;;23.77;14.73;;;;;;;;;;4969338;28;20084;-75
2021/10/30 05:06:23;;;;;;;19.33;13.30;;;;;;;;;;4971174;28;20034;-74
2021/10/30 05:08:49;;;;;;;24.80;14.70;;;;;;;;;;4970883;28;20061;-75
2021/10/30 05:11:15;;;;;;;19.00;13.45;;;;;;;;;;4971030;28;20122;-74
2021/10/30 05:13:41;;;;;;;21.58;14.05;;;;;;;;;;4970590;28;20035;-74
2021/10/30 05:16:10;;;;;;;17.25;13.02;;;;;;;;;;4969954;28;20101;-74
2021/10/30 05:18:36;;;;;;;20.27;12.90;;;;;;;;;;4971088;28;20031;-74
2021/10/30 05:21:02;;;;;;;19.05;13.40;;;;;;;;;;4970138;28;20038;-74
2021/10/30 05:23:28;;;;;;;21.33;15.10;;;;;;;;;;4971195;28;20041;-74
2021/10/30 05:25:54;;;;;;;20.48;14.63;;;;;;;;;;4970368;28;20045;-74
2021/10/30 05:28:26;;;;;;;24.00;17.50;;;;;;;;;;4970304;28;20066;-74
2021/10/30 05:30:54;;;;;;;24.85;15.30;;;;;;;;;;4975754;28;20027;-73
2021/10/30 05:33:20;;;;;;;20.25;13.40;;;;;;;;;;4976941;28;20054;-74
2021/10/30 05:35:47;;;;;;;18.90;13.45;;;;;;;;;;4969869;28;20046;-74
2021/10/30 05:38:14;;;;;;;20.63;13.90;;;;;;;;;;4994486;28;20048;-75
2021/10/30 05:40:40;;;;;;;21.60;13.95;;;;;;;;;;5034097;28;20021;-74
2021/10/30 05:43:06;;;;;;;19.08;13.40;;;;;;;;;;5034697;28;20068;-76
2021/10/30 05:45:33;;;;;;;21.75;13.25;;;;;;;;;;5027766;28;20040;-75
2021/10/30 05:47:59;;;;;;;23.10;13.45;;;;;;;;;;5021386;28;20092;-75
2021/10/30 05:50:25;;;;;;;19.52;12.35;;;;;;;;;;5027816;28;20026;-73
2021/10/30 05:52:51;;;;;;;16.98;12.32;;;;;;;;;;5032211;28;20108;-73
2021/10/30 05:55:17;;;;;;;16.63;12.18;;;;;;;;;;5032773;28;20548;-73
2021/10/30 05:57:51;;;;;;;29.27;20.60;;;;;;;;;;5026648;28;20034;-74
2021/10/30 06:00:17;;;;;;;;;;;;;;;;;;5027138;28;20026;-73
2021/10/30 06:02:43;;;;;;;20.25;13.80;;;;;;;;;;5026853;28;19929;-75
2021/10/30 06:05:09;;;;;;;21.90;13.35;;;;;;;;;;5029625;28;20064;-73
2021/10/30 06:07:35;;;;;;;20.40;13.90;;;;;;;;;;5033048;28;20025;-75
2021/10/30 06:10:02;;;;;;;23.42;14.13;;;;;;;;;;5032277;28;20024;-74
2021/10/30 06:12:28;;;;;;;25.17;14.23;;;;;;;;;;5032388;28;20482;-74
2021/10/30 06:14:54;;;;;;;18.98;12.85;;;;;;;;;;5028544;28;20028;-72
2021/10/30 06:17:20;;;;;;;32.72;15.20;;;;;;;;;;5029864;28;20121;-75
2021/10/30 06:19:48;;;;;;;41.33;21.85;;;;;;;;;;5033013;28;20104;-75
2021/10/30 06:22:15;;;;;;;20.48;12.20;;;;;;;;;;5028140;28;20069;-75
2021/10/30 06:24:43;;;;;;;20.50;12.70;;;;;;;;;;5022715;28;20045;-74
2021/10/30 06:27:09;;;;;;;17.00;11.38;;;;;;;;;;5021473;28;20065;-75
2021/10/30 06:29:36;;;;;;;15.90;11.57;;;;;;;;;;5025883;28;20020;-74
2021/10/30 06:32:02;;;;;;;20.63;12.27;;;;;;;;;;5030011;28;20048;-74
2021/10/30 06:34:28;;;;;;;16.88;11.80;;;;;;;;;;5071488;28;20474;-74
2021/10/30 06:37:27;;;;;;;14.52;10.82;;;;;;;;;;5071216;28;20473;-75
2021/10/30 06:39:53;;;;;;;16.05;12.10;;;;;;;;;;5053767;28;20025;-75
2021/10/30 06:42:19;;;;;;;17.27;12.35;;;;;;;;;;5071723;28;20033;-75
2021/10/30 06:44:49;;;;;;;16.30;11.70;;;;;;;;;;5069503;28;20020;-75
2021/10/30 06:47:16;;;;;;;14.38;10.48;;;;;;;;;;5059659;28;20039;-74
2021/10/30 06:49:42;;;;;;;19.25;11.20;;;;;;;;;;5060145;28;20031;-74
2021/10/30 06:52:18;;;;;;;18.95;12.38;;;;;;;;;;5054029;28;20037;-75
2021/10/30 06:54:44;;;;;;;21.70;12.30;;;;;;;;;;5054040;28;20025;-75
2021/10/30 06:57:10;;;;;;;22.80;12.77;;;;;;;;;;5053260;28;20029;-74
2021/10/30 06:59:36;;;;;;;19.60;12.98;;;;;;;;;;5052855;28;20059;-75
2021/10/30 07:02:04;;;;;;;16.90;11.73;;;;;;;;;;5061596;28;20089;-73
2021/10/30 07:04:30;;;;;;;20.80;12.32;;;;;;;;;;5063022;28;20065;-75
2021/10/30 07:06:56;;;;;;;17.75;12.25;;;;;;;;;;5053197;28;20429;-74
2021/10/30 07:09:22;;;;;;;18.88;11.68;;;;;;;;;;5064690;28;20503;-75
2021/10/30 07:11:48;;;;;;;20.15;11.80;;;;;;;;;;5059337;28;20485;-75
2021/10/30 07:14:14;;;;;;;19.88;12.27;;;;;;;;;;5060128;28;20489;-73
2021/10/30 07:16:40;;;;;;;22.45;12.82;;;;;;;;;;5053249;28;20035;-75
2021/10/30 07:19:06;;;;;;;23.02;14.30;;;;;;;;;;5042502;28;20036;-73
2021/10/30 07:21:35;;;;;;;16.77;12.25;;;;;;;;;;5060089;28;20034;-75
2021/10/30 07:24:02;;;;;;;14.40;11.23;;;;;;;;;;5056592;28;20028;-73
2021/10/30 07:26:28;;;;;;;20.08;15.35;;;;;;;;;;5054900;28;20470;-74
2021/10/30 07:28:54;;;;;;;15.75;11.88;;;;;;;;;;5057081;28;20103;-74
2021/10/30 07:31:20;;;;;;;13.32;10.95;;;;;;;;;;5056837;28;20033;-74
2021/10/30 07:33:46;;;;;;;15.63;11.52;;;;;;;;;;5072274;28;20045;-74
2021/10/30 07:36:12;;;;;;;19.90;16.08;;;;;;;;;;5072476;28;20103;-75
2021/10/30 07:38:38;;;;;;;16.17;13.55;;;;;;;;;;5076309;28;20070;-74
2021/10/30 07:41:05;;;;;;;21.40;12.95;;;;;;;;;;5069085;28;20016;-74
2021/10/30 07:43:32;;;;;;;20.63;12.77;;;;;;;;;;5071163;28;20021;-72
2021/10/30 07:45:58;;;;;;;16.40;11.45;;;;;;;;;;5061402;28;20040;-74
2021/10/30 07:48:25;;;;;;;17.90;12.05;;;;;;;;;;5056019;28;20025;-74
2021/10/30 07:50:51;;;;;;;24.35;11.43;;;;;;;;;;5070667;28;20029;-73
2021/10/30 07:53:17;;;;;;;17.45;11.85;;;;;;;;;;5069959;28;20040;-74
2021/10/30 07:55:43;;;;;;;17.98;12.27;;;;;;;;;;5072226;28;20031;-74
2021/10/30 07:58:09;;;;;;;15.02;11.15;;;;;;;;;;5071885;28;20024;-74
2021/10/30 08:00:35;;;;;;;19.60;10.93;;;;;;;;;;5065883;28;20025;-73
2021/10/30 08:03:01;;;;;;;18.25;12.35;;;;;;;;;;5071719;28;20107;-74
2021/10/30 08:05:27;;;;;;;18.90;11.25;;;;;;;;;;5068808;28;20221;-73
2021/10/30 08:07:54;;;;;;;17.13;12.93;;;;;;;;;;5072394;28;20021;-74
2021/10/30 08:10:22;;;;;;;16.90;12.55;;;;;;;;;;5057589;28;20021;-74
2021/10/30 08:12:48;;;;;;;17.38;12.82;;;;;;;;;;5070984;28;20072;-74
2021/10/30 08:15:14;;;;;;;18.35;12.05;;;;;;;;;;5053746;28;20020;-72
2021/10/30 08:18:00;;;;;;;18.88;12.25;;;;;;;;;;5066744;28;20040;-74
2021/10/30 08:20:47;;;;;;;15.52;11.65;;;;;;;;;;5065550;28;20480;-73
2021/10/30 08:23:39;;;;;;;23.35;11.68;;;;;;;;;;5068820;28;20012;-74
2021/10/30 08:26:08;;;;;;;22.73;12.00;;;;;;;;;;5077887;28;20037;-73
2021/10/30 08:28:34;;;;;;;18.77;12.05;;;;;;;;;;5055262;28;20025;-74
2021/10/30 08:31:03;;;;;;;19.05;13.07;;;;;;;;;;5061308;28;20025;-73
2021/10/30 08:33:29;;;;;;;16.88;12.20;;;;;;;;;;5068934;28;20044;-74
2021/10/30 08:39:29;;;;;;;21.55;12.90;;;;;;;;;;4970723;28;20041;-74
2021/10/30 08:41:55;;;;;;;27.48;10.50;;;;;;;;;;4964738;28;20067;-74
2021/10/30 08:44:25;;;;;;;18.67;11.10;;;;;;;;;;4968935;28;20054;-74
2021/10/30 08:46:51;;;;;;;15.75;10.23;;;;;;;;;;4967642;28;20056;-74
2021/10/30 08:49:18;;;;;;;17.92;10.55;;;;;;;;;;4960898;28;20322;-74
2021/10/30 08:51:44;;;;;;;16.50;11.05;;;;;;;;;;4967200;28;20047;-74
2021/10/30 08:54:10;;;;;;;18.77;10.00;;;;;;;;;;4967863;28;20066;-74
2021/10/30 08:56:39;;;;;;;19.23;10.45;;;;;;;;;;4970608;28;20114;-74
2021/10/30 08:59:05;;;;;;;15.80;10.05;;;;;;;;;;4970444;28;20488;-74
2021/10/30 09:01:41;;;;;;;18.75;9.82;;;;;;;;;;4968323;28;20460;-74
2021/10/30 09:04:42;;;;;;;;;;;;;;;;;;;;;
2021/10/30 09:07:16;;;;;;;19.55;10.45;;;;;;;;;;4973437;28;20058;-74
2021/10/30 09:09:46;;;;;;;25.38;10.65;;;;;;;;;;4977223;28;20038;-72
2021/10/30 09:12:24;;;;;;;18.13;10.10;;;;;;;;;;5012100;28;20045;-73
2021/10/30 09:14:52;;;;;;;32.20;10.80;;;;;;;;;;5044436;28;20397;-74
2021/10/30 09:20:42;;;;;;;16.42;9.60;;;;;;;;;;4993193;28;20526;-74
2021/10/30 09:23:20;;;;;;;16.08;9.35;;;;;;;;;;4984291;28;20045;-74
2021/10/30 09:29:04;;;;;;;12.73;9.77;;;;;;;;;;4897068;29;20475;-74
2021/10/30 09:31:30;;;;;;;17.65;9.43;;;;;;;;;;4886710;29;20047;-74
2021/10/30 09:33:57;;;;;;;18.88;9.80;;;;;;;;;;4897440;29;20058;-74
2021/10/30 09:36:28;;;;;;;15.93;9.45;;;;;;;;;;4895361;29;20036;-73
2021/10/30 09:38:55;;;;;;;13.70;9.05;;;;;;;;;;4897217;29;20075;-74
2021/10/30 09:41:24;;;;;;;18.08;10.35;;;;;;;;;;4895625;29;20394;-73
2021/10/30 09:44:24;;;;;;;21.75;10.52;;;;;;;;;;4897060;29;20096;-74
2021/10/30 09:47:00;;;;;;;14.35;8.82;;;;;;;;;;4841213;29;20069;-74
2021/10/30 09:49:30;;;;;;;17.95;10.30;;;;;;;;;;4869951;29;20041;-73
2021/10/30 09:51:56;;;;;;;15.10;9.73;;;;;;;;;;4901585;29;20036;-74
2021/10/30 09:54:35;;;;;;;20.48;8.70;;;;;;;;;;4916319;29;20553;-74
2021/10/30 09:57:25;;;;;;;15.75;8.48;;;;;;;;;;4920373;29;20048;-73
2021/10/30 09:59:53;;;;;;;14.73;9.48;;;;;;;;;;4892440;29;20036;-73
2021/10/30 10:02:19;;;;;;;14.05;8.63;;;;;;;;;;4914688;29;20025;-73
2021/10/30 10:05:14;;;;;;;14.25;8.82;;;;;;;;;;4928220;29;20057;-70
2021/10/30 10:07:40;;;;;;;14.60;9.30;;;;;;;;;;4976129;28;20061;-72
2021/10/30 10:10:06;;;;;;;14.38;8.43;;;;;;;;;;4992461;28;20039;-73
2021/10/30 10:12:32;;;;;;;13.13;8.23;;;;;;;;;;4991831;28;20034;-72
2021/10/30 10:14:59;;;;;;;22.20;11.32;;;;;;;;;;4991716;28;20109;-73
2021/10/30 10:17:26;;;;;;;16.00;9.80;;;;;;;;;;4992307;28;20042;-73
2021/10/30 10:19:54;;;;;;;19.17;10.60;;;;;;;;;;4992045;28;20018;-73
2021/10/30 10:22:20;;;;;;;11.88;8.27;;;;;;;;;;5005046;28;20040;-72
2021/10/30 10:24:46;;;;;;;11.90;8.02;;;;;;;;;;5073474;28;20074;-73
2021/10/30 10:27:12;;;;;;;17.55;9.32;;;;;;;;;;5073977;28;20089;-73
2021/10/30 10:29:42;;;;;;;13.13;8.30;;;;;;;;;;5071000;28;20025;-76
2021/10/30 10:35:25;;;;;;;17.35;8.50;;;;;;;;;;4988081;28;20556;-72
2021/10/30 10:37:51;;;;;;;12.80;8.05;;;;;;;;;;4973491;28;20495;-74
2021/10/30 10:40:28;;;;;;;14.82;7.80;;;;;;;;;;4986541;28;20221;-73
2021/10/30 10:43:00;;;;;;;14.20;7.78;;;;;;;;;;4980046;28;20400;-71
2021/10/30 10:45:53;;;;;;;26.20;8.00;;;;;;;;;;4978805;28;20582;-75
2021/10/30 10:48:22;;;;;;;32.60;9.57;;;;;;;;;;4964698;28;20528;-71
2021/10/30 10:50:50;;;;;;;19.92;8.30;;;;;;;;;;4984646;28;20696;-72
2021/10/30 10:53:17;;;;;;;14.23;8.20;;;;;;;;;;4983685;28;20148;-74
2021/10/30 10:55:46;;;;;;;17.23;8.13;;;;;;;;;;4973750;28;20042;-73
2021/10/30 10:58:17;;;;;;;19.02;8.32;;;;;;;;;;4985704;28;20101;-73
2021/10/30 11:01:09;;;;;;;13.38;8.48;;;;;;;;;;4985451;28;20031;-71
2021/10/30 11:03:43;;;;;;;33.35;9.43;;;;;;;;;;4989298;28;20027;-74
2021/10/30 11:06:11;;;;;;;12.23;8.23;;;;;;;;;;4991469;28;20145;-73
2021/10/30 11:08:43;;;;;;;16.33;7.72;;;;;;;;;;4979663;28;20170;-70
2021/10/30 11:11:25;;;;;;;10.32;7.15;;;;;;;;;;5024816;28;20086;-72
2021/10/30 11:13:53;;;;;;;14.82;8.35;;;;;;;;;;5047816;28;20048;-72
2021/10/30 11:16:31;;;;;;;14.00;7.80;;;;;;;;;;5063852;28;20159;-73
2021/10/30 11:19:18;;;;;;;13.43;8.25;;;;;;;;;;5065812;28;20039;-71
2021/10/30 11:21:50;;;;;;;12.57;7.70;;;;;;;;;;5060657;28;20480;-73
2021/10/30 11:24:41;;;;;;;18.27;8.52;;;;;;;;;;5064249;28;20805;-73
2021/10/30 11:27:09;;;;;;;18.52;8.95;;;;;;;;;;5047582;28;20104;-73
2021/10/30 11:29:46;;;;;;;16.77;9.75;;;;;;;;;;5067053;28;20153;-73
2021/10/30 11:32:13;;;;;;;23.65;11.80;;;;;;;;;;5055022;28;20102;-71
2021/10/30 11:34:39;;;;;;;15.63;8.82;;;;;;;;;;5065976;28;20025;-72
2021/10/30 11:37:08;;;;;;;10.30;7.38;;;;;;;;;;5064110;28;20021;-72
2021/10/30 11:39:34;;;;;;;13.13;7.85;;;;;;;;;;5049156;28;20100;-72
2021/10/30 11:42:05;;;;;;;14.75;9.02;;;;;;;;;;5054986;28;20059;-72
2021/10/30 11:44:31;;;;;;;41.92;9.20;;;;;;;;;;5056140;28;20020;-73
2021/10/30 11:46:59;;;;;;;18.58;8.68;;;;;;;;;;5062879;28;20024;-72
2021/10/30 11:49:58;;;;;;;13.23;9.20;;;;;;;;;;5061833;28;20036;-71
2021/10/30 11:52:25;;;;;;;17.80;9.23;;;;;;;;;;5063318;28;20037;-73
2021/10/30 11:54:55;;;;;;;18.13;8.95;;;;;;;;;;5057464;28;20029;-71
2021/10/30 11:57:21;;;;;;;19.00;9.32;;;;;;;;;;5039063;28;20036;-72
2021/10/30 11:59:56;;;;;;;20.48;10.93;;;;;;;;;;5059842;28;20037;-72
2021/10/30 12:02:25;;;;;;;17.05;9.52;;;;;;;;;;5053310;28;20048;-73
2021/10/30 12:04:51;;;;;;;17.92;11.13;;;;;;;;;;5043910;28;20032;-72
2021/10/30 12:07:18;;;;;;;23.05;11.93;;;;;;;;;;5057410;28;20025;-73
2021/10/30 12:09:47;;;;;;;17.85;8.40;;;;;;;;;;5064247;28;20025;-73
2021/10/30 12:12:19;;;;;;;17.67;8.60;;;;;;;;;;5041583;28;20032;-73
2021/10/30 12:14:46;;;;;;;15.43;10.32;;;;;;;;;;5061831;28;20424;-74
2021/10/30 12:17:29;;;;;;;25.00;9.38;;;;;;;;;;5042467;28;20033;-73
2021/10/30 12:19:55;;;;;;;16.85;9.63;;;;;;;;;;5044692;28;20055;-71
2021/10/30 12:22:22;;;;;;;15.85;8.32;;;;;;;;;;5045025;28;20717;-75
2021/10/30 12:28:08;;;;;;;20.40;9.55;;;;;;;;;;4939957;29;20028;-72
2021/10/30 12:30:36;;;;;;;14.60;9.27;;;;;;;;;;4941960;29;20030;-74
2021/10/30 12:33:09;;;;;;;16.23;8.75;;;;;;;;;;4928863;29;20517;-72
2021/10/30 12:35:35;;;;;;;14.05;8.68;;;;;;;;;;4942483;29;20392;-71
2021/10/30 12:38:20;;;;;;;14.50;8.23;;;;;;;;;;4936342;29;20040;-74
2021/10/30 12:40:47;;;;;;;14.45;8.20;;;;;;;;;;4926645;29;20031;-75
2021/10/30 12:43:14;;;;;;;17.90;9.65;;;;;;;;;;4931565;29;20049;-73
2021/10/30 12:45:40;;;;;;;15.55;9.35;;;;;;;;;;4947570;29;20035;-74
2021/10/30 12:48:28;;;;;;;15.50;8.82;;;;;;;;;;4957151;28;20428;-73
2021/10/30 12:50:59;;;;;;;17.88;10.48;;;;;;;;;;4950078;28;20114;-75
2021/10/30 12:53:36;;;;;;;28.25;10.40;;;;;;;;;;4972625;28;20051;-72
2021/10/30 12:56:06;;;;;;;25.88;14.15;;;;;;;;;;4970941;28;20045;-72
2021/10/30 12:58:50;;;;;;;22.40;11.18;;;;;;;;;;4955768;28;20035;-73
2021/10/30 13:01:40;;;;;;;16.00;9.60;;;;;;;;;;4949475;28;20393;-76
2021/10/30 13:04:07;;;;;;;19.50;11.27;;;;;;;;;;4999353;28;20490;-71
2021/10/30 13:06:34;;;;;;;18.23;10.27;;;;;;;;;;5068084;28;20040;-73
2021/10/30 13:09:05;;;;;;;14.57;8.90;;;;;;;;;;5062495;28;20024;-76
2021/10/30 13:11:34;;;;;;;18.08;10.70;;;;;;;;;;5057132;28;20024;-72
2021/10/30 13:14:00;;;;;;;17.55;9.45;;;;;;;;;;5046935;28;20055;-73
2021/10/30 13:16:27;;;;;;;23.23;9.57;;;;;;;;;;5070809;28;20029;-76
2021/10/30 13:18:56;;;;;;;16.52;9.75;;;;;;;;;;5063950;28;20134;-74
2021/10/30 13:21:23;;;;;;;11.93;8.25;;;;;;;;;;5052776;28;20059;-73
2021/10/30 13:23:50;;;;;;;15.27;7.72;;;;;;;;;;5048162;28;20036;-75
2021/10/30 13:26:17;;;;;;;11.57;8.07;;;;;;;;;;5048214;28;20025;-75
2021/10/30 13:28:44;;;;;;;12.02;8.27;;;;;;;;;;5050113;28;20035;-78
2021/10/30 13:31:12;;;;;;;15.70;8.35;;;;;;;;;;5049619;28;20121;-71
2021/10/30 13:33:38;;;;;;;14.25;8.13;;;;;;;;;;5046270;28;20402;-76
2021/10/30 13:36:27;;;;;;;12.07;7.80;;;;;;;;;;5069552;28;20202;-73
2021/10/30 13:38:54;;;;;;;19.55;9.15;;;;;;;;;;5048668;28;20028;-84
2021/10/30 13:44:17;;;;;;;16.75;10.27;;;;;;;;;;5067170;28;20054;-73
2021/10/30 13:46:46;;;;;;;13.73;8.10;;;;;;;;;;5049262;28;20397;-72
2021/10/30 13:49:18;;;;;;;12.60;7.63;;;;;;;;;;5044950;28;20474;-83
2021/10/30 13:52:10;;;;;;;;;;;;;;;;;;;;;
2021/10/30 13:54:37;;;;;;;11.90;8.10;;;;;;;;;;5058300;28;20029;-75
2021/10/30 13:59:52;;;;;;;11.43;7.75;;;;;;;;;;4987984;28;20049;-74
2021/10/30 14:02:33;;;;;;;11.32;7.45;;;;;;;;;;5034583;28;20585;-73
2021/10/30 14:05:18;;;;;;;12.88;7.97;;;;;;;;;;5069485;28;20036;-73
2021/10/30 14:07:45;;;;;;;14.05;8.45;;;;;;;;;;5058314;28;20021;-74
2021/10/30 14:10:11;;;;;;;13.02;8.30;;;;;;;;;;5070953;28;20052;-79
2021/10/30 14:12:40;;;;;;;15.90;8.48;;;;;;;;;;5060631;28;20025;-75
2021/10/30 14:15:06;;;;;;;10.98;8.18;;;;;;;;;;5060647;28;20037;-70
2021/10/30 14:17:51;;;;;;;15.18;10.10;;;;;;;;;;5065669;28;20017;-73
2021/10/30 14:20:17;;;;;;;15.00;10.40;;;;;;;;;;5049560;28;20033;-76
2021/10/30 14:22:43;;;;;;;17.00;9.95;;;;;;;;;;5064490;28;20037;-73
2021/10/30 14:25:47;;;;;;;;;;;;;;;;;;;;;
2021/10/30 14:28:14;;;;;;;17.05;10.40;;;;;;;;;;4981522;28;20033;-76
2021/10/30 14:31:03;;;;;;;16.55;10.10;;;;;;;;;;4988102;28;20034;-75
2021/10/30 14:33:39;;;;;;;26.77;11.25;;;;;;;;;;4912915;29;20064;-73
2021/10/30 14:36:55;;;;;;;18.33;11.13;;;;;;;;;;4917518;29;20514;-75
2021/10/30 14:39:29;;;;;;;17.45;11.50;;;;;;;;;;4915142;29;20044;-77
2021/10/30 14:41:58;;;;;;;19.33;11.23;;;;;;;;;;4899772;29;20073;-73
2021/10/30 14:45:14;;;;;;;;;;;;;;;;;;;;;
2021/10/30 14:47:46;;;;;;;19.77;11.50;;;;;;;;;;4913720;29;20059;-73
2021/10/30 14:50:39;;;;;;;;;;;;;;;;;;;;;
2021/10/30 14:53:08;;;;;;;21.55;12.02;;;;;;;;;;4916804;29;20052;-70
2021/10/30 14:55:34;;;;;;;22.05;11.68;;;;;;;;;;4906265;29;20732;-73
2021/10/30 15:01:04;;;;;;;19.17;12.35;;;;;;;;;;4919611;29;20062;-76
2021/10/30 15:03:30;;;;;;;17.23;11.18;;;;;;;;;;4920512;29;20044;-74
2021/10/30 15:06:44;;;;;;;;;;;;;;;;;;;;;
2021/10/30 15:12:32;;;;;;;19.83;12.00;;;;;;;;;;4968128;28;20039;-78
2021/10/30 15:14:58;;;;;;;20.77;12.25;;;;;;;;;;4948507;28;20129;-80
2021/10/30 15:17:25;;;;;;;23.13;11.85;;;;;;;;;;4970825;28;20031;-78
2021/10/30 15:19:51;;;;;;;19.30;12.35;;;;;;;;;;4971108;28;20140;-77